createdAt,value
2022-09-06T00:00:14.947Z,3.20
2022-09-06T00:02:43.882Z,3.38
2022-09-06T00:05:12.678Z,2.97
2022-09-06T00:07:40.965Z,3.17
2022-09-06T00:10:11.334Z,3.10
2022-09-06T00:12:39.764Z,2.92
2022-09-06T00:15:08.558Z,3.13
2022-09-06T00:17:36.843Z,3.25
2022-09-06T00:20:05.929Z,3.00
2022-09-06T00:22:34.249Z,2.88
2022-09-06T00:25:02.523Z,3.30
2022-09-06T00:27:32.214Z,3.22
2022-09-06T00:30:00.529Z,3.20
2022-09-06T00:32:28.871Z,3.40
2022-09-06T00:34:57.212Z,2.97
2022-09-06T00:37:25.533Z,3.30
2022-09-06T00:39:53.896Z,3.20
2022-09-06T00:42:22.343Z,2.80
2022-09-06T00:44:52.506Z,3.13
2022-09-06T00:47:21.224Z,3.03
2022-09-06T00:49:52.070Z,3.05
2022-09-06T00:52:20.657Z,3.00
2022-09-06T00:54:49.688Z,3.78
2022-09-06T00:57:18.637Z,3.00
2022-09-06T00:59:47.878Z,3.05
2022-09-06T01:02:17.680Z,2.90
2022-09-06T01:04:47.659Z,3.53
2022-09-06T01:07:20.371Z,3.15
2022-09-06T01:09:55.954Z,3.08
2022-09-06T01:12:33.308Z,2.85
2022-09-06T01:15:07.043Z,3.50
2022-09-06T01:17:44.976Z,3.20
2022-09-06T01:20:26.797Z,3.20
2022-09-06T01:23:19.017Z,3.13
2022-09-06T01:25:52.775Z,3.08
2022-09-06T01:28:29.728Z,2.70
2022-09-06T01:31:02.422Z,2.83
2022-09-06T01:33:34.204Z,2.97
2022-09-06T01:36:03.789Z,3.00
2022-09-06T01:38:32.156Z,2.97
2022-09-06T01:41:00.412Z,3.00
2022-09-06T01:43:33.478Z,2.90
2022-09-06T01:46:05.123Z,3.13
2022-09-06T01:48:37.980Z,3.40
2022-09-06T01:51:16.801Z,3.60
2022-09-06T01:54:02.904Z,3.38
2022-09-06T01:56:35.318Z,3.03
2022-09-06T01:59:12.704Z,3.17
2022-09-06T02:01:46.202Z,3.40
2022-09-06T02:04:15.997Z,3.45
2022-09-06T02:06:45.539Z,3.10
2022-09-06T02:09:16.891Z,3.50
2022-09-06T02:11:48.021Z,3.35
2022-09-06T02:14:18.861Z,3.15
2022-09-06T02:16:48.974Z,3.08
2022-09-06T02:19:19.863Z,3.42
2022-09-06T02:21:49.251Z,3.42
2022-09-06T02:24:20.119Z,3.05
2022-09-06T02:26:49.027Z,3.40
2022-09-06T02:29:19.041Z,3.22
2022-09-06T02:31:49.080Z,3.88
2022-09-06T02:34:18.811Z,3.80
2022-09-06T02:36:47.548Z,3.65
2022-09-06T02:39:15.834Z,3.47
2022-09-06T02:41:45.483Z,3.60
2022-09-06T02:44:13.849Z,3.15
2022-09-06T02:46:43.514Z,3.85
2022-09-06T02:49:11.737Z,5.15
2022-09-06T02:51:40.290Z,3.63
2022-09-06T02:54:08.988Z,3.42
2022-09-06T02:56:37.484Z,3.33
2022-09-06T02:59:06.049Z,3.13
2022-09-06T03:01:34.438Z,4.10
2022-09-06T03:04:04.505Z,3.67
2022-09-06T03:06:32.806Z,4.57
2022-09-06T03:09:01.082Z,3.80
2022-09-06T03:11:29.773Z,3.88
2022-09-06T03:13:58.050Z,4.07
2022-09-06T03:16:26.538Z,3.60
2022-09-06T03:18:54.872Z,4.03
2022-09-06T03:21:24.517Z,4.07
2022-09-06T03:23:52.783Z,4.35
2022-09-06T03:26:21.086Z,3.83
2022-09-06T03:28:50.206Z,4.32
2022-09-06T03:31:18.644Z,4.05
2022-09-06T03:33:46.923Z,3.70
2022-09-06T03:36:15.734Z,3.20
2022-09-06T03:38:45.469Z,3.30
2022-09-06T03:41:19.824Z,3.30
2022-09-06T03:43:48.113Z,3.10
2022-09-06T03:46:16.416Z,3.33
2022-09-06T03:48:45.083Z,3.28
2022-09-06T03:51:13.406Z,3.78
2022-09-06T03:53:41.703Z,3.22
2022-09-06T03:56:11.626Z,3.17
2022-09-06T03:58:39.896Z,3.08
2022-09-06T04:01:09.034Z,3.20
2022-09-06T04:03:37.817Z,3.05
2022-09-06T04:06:06.915Z,3.22
2022-09-06T04:08:35.906Z,2.92
2022-09-06T04:11:04.183Z,2.88
2022-09-06T04:13:34.768Z,3.30
2022-09-06T04:16:03.285Z,3.05
2022-09-06T04:18:31.819Z,3.20
2022-09-06T04:21:00.268Z,3.13
2022-09-06T04:23:30.118Z,2.90
2022-09-06T04:25:59.159Z,3.00
2022-09-06T04:28:28.004Z,3.30
2022-09-06T04:31:05.741Z,3.30
2022-09-06T04:33:34.899Z,4.53
2022-09-06T04:36:03.781Z,4.50
2022-09-06T04:38:33.172Z,4.35
2022-09-06T04:41:01.471Z,3.38
2022-09-06T04:43:29.705Z,4.55
2022-09-06T04:46:05.708Z,3.50
2022-09-06T04:48:34.082Z,3.53
2022-09-06T04:51:02.481Z,3.55
2022-09-06T04:53:30.927Z,3.63
2022-09-06T04:56:01.339Z,3.78
2022-09-06T04:58:29.874Z,3.80
2022-09-06T05:00:58.268Z,4.20
2022-09-06T05:03:28.013Z,4.47
2022-09-06T05:06:05.252Z,4.20
2022-09-06T05:08:33.603Z,3.40
2022-09-06T05:11:02.058Z,3.85
2022-09-06T05:13:30.903Z,3.60
2022-09-06T05:16:01.697Z,3.60
2022-09-06T05:18:34.573Z,3.53
2022-09-06T05:21:03.314Z,4.15
2022-09-06T05:23:31.623Z,4.00
2022-09-06T05:26:00.394Z,4.10
2022-09-06T05:28:28.741Z,3.75
2022-09-06T05:31:06.425Z,3.55
2022-09-06T05:33:36.121Z,3.42
2022-09-06T05:36:04.850Z,3.75
2022-09-06T05:38:33.549Z,3.72
2022-09-06T05:41:02.108Z,4.35
2022-09-06T05:43:30.410Z,4.00
2022-09-06T05:45:58.720Z,4.53
2022-09-06T05:48:27.036Z,3.80
2022-09-06T05:51:02.621Z,4.93
2022-09-06T05:53:35.662Z,5.07
2022-09-06T05:56:04.176Z,4.55
2022-09-06T05:58:35.137Z,4.30
2022-09-06T06:01:07.145Z,4.43
2022-09-06T06:03:35.490Z,4.15
2022-09-06T06:06:05.181Z,4.32
2022-09-06T06:08:33.827Z,4.72
2022-09-06T06:11:02.520Z,4.28
2022-09-06T06:13:34.870Z,5.28
2022-09-06T06:16:04.306Z,4.53
2022-09-06T06:18:32.652Z,4.80
2022-09-06T06:21:15.330Z,4.55
2022-09-06T06:23:44.157Z,4.60
2022-09-06T06:26:13.217Z,4.75
2022-09-06T06:28:41.674Z,5.07
2022-09-06T06:31:11.931Z,4.50
2022-09-06T06:33:40.325Z,4.63
2022-09-06T06:36:09.820Z,5.00
2022-09-06T06:38:39.950Z,4.70
2022-09-06T06:41:09.588Z,5.25
2022-09-06T06:43:38.205Z,5.10
2022-09-06T06:46:06.797Z,5.30
2022-09-06T06:48:35.121Z,5.18
2022-09-06T06:51:05.669Z,5.43
2022-09-06T06:53:35.276Z,7.32
2022-09-06T06:56:14.535Z,5.82
2022-09-06T06:58:42.880Z,5.78
2022-09-06T07:01:11.441Z,5.63
2022-09-06T07:03:39.809Z,6.25
2022-09-06T07:08:41.889Z,6.38
2022-09-06T07:11:18.640Z,5.35
2022-09-06T07:13:48.796Z,5.70
2022-09-06T07:16:17.879Z,6.25
2022-09-06T07:18:46.246Z,5.95
2022-09-06T07:26:39.924Z,6.40
2022-09-06T07:29:09.012Z,5.90
2022-09-06T07:34:26.282Z,6.30
2022-09-06T07:36:54.612Z,5.80
2022-09-06T07:39:23.174Z,6.43
2022-09-06T07:41:52.828Z,6.72
2022-09-06T07:44:21.094Z,6.38
2022-09-06T07:46:49.447Z,6.40
2022-09-06T07:49:17.791Z,6.15
2022-09-06T07:51:46.051Z,5.88
2022-09-06T07:54:29.888Z,6.50
2022-09-06T07:57:00.290Z,6.00
2022-09-06T07:59:28.549Z,6.55
2022-09-06T08:01:56.844Z,6.20
2022-09-06T08:04:25.192Z,5.95
2022-09-06T08:09:41.991Z,5.97
2022-09-06T08:12:11.936Z,5.70
2022-09-06T08:14:40.422Z,5.90
2022-09-06T08:17:09.020Z,6.45
2022-09-06T08:19:37.385Z,5.95
2022-09-06T08:22:05.738Z,6.20
2022-09-06T08:24:35.767Z,5.53
2022-09-06T08:27:07.603Z,5.72
2022-09-06T08:29:37.465Z,5.65
2022-09-06T08:32:05.859Z,5.70
2022-09-06T08:34:34.272Z,5.68
2022-09-06T08:37:02.665Z,5.40
2022-09-06T08:39:31.185Z,5.50
2022-09-06T08:42:01.954Z,5.25
2022-09-06T08:47:23.776Z,5.45
2022-09-06T08:49:54.671Z,5.95
2022-09-06T08:52:29.592Z,5.85
2022-09-06T08:55:03.179Z,4.97
2022-09-06T08:57:40.258Z,5.80
2022-09-06T09:00:11.266Z,5.20
2022-09-06T09:02:45.433Z,5.20
2022-09-06T09:05:22.063Z,6.03
2022-09-06T09:07:54.568Z,5.55
2022-09-06T09:10:25.890Z,5.28
2022-09-06T09:12:54.435Z,4.53
2022-09-06T09:15:23.416Z,4.78
2022-09-06T09:17:54.963Z,4.93
2022-09-06T09:20:23.526Z,4.65
2022-09-06T09:22:52.096Z,4.45
2022-09-06T09:25:22.176Z,4.07
2022-09-06T09:27:57.532Z,4.18
2022-09-06T09:33:24.577Z,4.05
2022-09-06T09:35:53.053Z,4.07
2022-09-06T09:38:22.843Z,3.90
2022-09-06T09:40:52.343Z,3.75
2022-09-06T09:43:22.594Z,4.50
2022-09-06T09:46:10.115Z,4.07
2022-09-06T09:48:40.752Z,4.10
2022-09-06T09:51:26.732Z,3.50
2022-09-06T09:53:56.563Z,3.60
2022-09-06T09:56:29.293Z,3.83
2022-09-06T09:58:58.758Z,3.47
2022-09-06T10:01:29.202Z,3.50
2022-09-06T10:07:09.608Z,3.13
2022-09-06T10:09:39.949Z,3.47
2022-09-06T10:12:08.907Z,3.47
2022-09-06T10:14:42.610Z,3.33
2022-09-06T10:17:19.506Z,3.03
2022-09-06T10:19:49.555Z,3.03
2022-09-06T10:22:23.965Z,3.35
2022-09-06T10:25:08.295Z,3.53
2022-09-06T10:27:42.504Z,3.13
2022-09-06T10:30:14.554Z,3.40
2022-09-06T10:32:43.558Z,3.05
2022-09-06T10:35:16.723Z,2.83
2022-09-06T10:37:52.822Z,2.70
2022-09-06T10:40:28.969Z,3.17
2022-09-06T10:42:59.214Z,3.33
2022-09-06T10:45:35.528Z,3.05
2022-09-06T10:48:12.480Z,3.00
2022-09-06T10:50:47.026Z,3.22
2022-09-06T10:53:18.309Z,3.00
2022-09-06T10:55:48.079Z,2.70
2022-09-06T10:58:20.112Z,2.40
2022-09-06T11:00:49.510Z,2.47
2022-09-06T11:06:11.545Z,2.90
2022-09-06T11:11:17.944Z,2.80
2022-09-06T11:13:47.291Z,2.63
2022-09-06T11:16:17.977Z,2.35
2022-09-06T11:18:50.511Z,2.75
2022-09-06T11:21:36.595Z,2.60
2022-09-06T11:24:11.225Z,2.28
2022-09-06T11:26:44.392Z,2.58
2022-09-06T11:29:18.577Z,3.05
2022-09-06T11:34:45.696Z,2.70
2022-09-06T11:37:25.479Z,2.50
2022-09-06T11:43:12.179Z,2.42
2022-09-06T11:45:42.178Z,2.45
2022-09-06T11:48:34.172Z,2.90
2022-09-06T11:51:06.690Z,2.60
2022-09-06T11:53:36.864Z,2.38
2022-09-06T11:56:25.487Z,2.28
2022-09-06T11:58:57.883Z,2.70
2022-09-06T12:01:37.481Z,2.72
2022-09-06T12:04:10.671Z,2.90
2022-09-06T12:06:41.121Z,2.72
2022-09-06T12:09:24.328Z,2.75
2022-09-06T12:11:55.960Z,2.85
2022-09-06T12:14:31.964Z,3.00
2022-09-06T12:17:27.661Z,2.63
2022-09-06T12:19:57.851Z,3.30
2022-09-06T12:22:44.504Z,3.30
2022-09-06T12:25:18.341Z,3.00
2022-09-06T12:27:55.434Z,2.58
2022-09-06T12:30:34.345Z,2.67
2022-09-06T12:33:23.570Z,2.50
2022-09-06T12:38:25.380Z,2.70
2022-09-06T12:40:58.955Z,2.90
2022-09-06T12:43:29.809Z,2.67
2022-09-06T12:45:58.375Z,2.78
2022-09-06T12:48:28.424Z,2.70
2022-09-06T12:51:03.618Z,2.50
2022-09-06T12:53:34.201Z,2.47
2022-09-06T12:56:07.042Z,2.33
2022-09-06T12:58:38.794Z,2.20
2022-09-06T13:01:11.390Z,2.63
2022-09-06T13:03:42.294Z,3.22
2022-09-06T13:06:13.372Z,2.55
2022-09-06T13:08:46.462Z,2.50
2022-09-06T13:11:15.905Z,2.22
2022-09-06T13:13:49.791Z,3.00
2022-09-06T13:16:22.346Z,2.50
2022-09-06T13:18:50.850Z,2.17
2022-09-06T13:21:27.002Z,2.40
2022-09-06T13:23:55.779Z,2.15
2022-09-06T13:26:37.316Z,2.20
2022-09-06T13:29:14.192Z,2.10
2022-09-06T13:31:46.683Z,2.38
2022-09-06T13:34:21.558Z,2.47
2022-09-06T13:36:52.266Z,2.40
2022-09-06T13:39:34.095Z,2.40
2022-09-06T13:42:03.490Z,2.22
2022-09-06T13:44:34.497Z,2.38
2022-09-06T13:47:02.954Z,2.22
2022-09-06T13:49:31.519Z,2.20
2022-09-06T13:52:01.939Z,2.00
2022-09-06T13:54:30.367Z,2.13
2022-09-06T13:56:59.232Z,1.90
2022-09-06T13:59:27.803Z,2.10
2022-09-06T14:02:02.040Z,2.20
2022-09-06T14:04:30.457Z,1.95
2022-09-06T14:06:58.764Z,2.20
2022-09-06T14:12:09.962Z,2.10
2022-09-06T14:14:39.964Z,2.40
2022-09-06T14:17:09.717Z,1.85
2022-09-06T14:19:38.173Z,2.17
2022-09-06T14:22:07.320Z,2.13
2022-09-06T14:24:35.631Z,2.20
2022-09-06T14:27:07.168Z,2.00
2022-09-06T14:29:40.933Z,2.10
2022-09-06T14:32:10.853Z,2.10
2022-09-06T14:34:39.106Z,2.13
2022-09-06T14:37:11.543Z,2.20
2022-09-06T14:39:45.187Z,2.00
2022-09-06T14:42:13.713Z,2.30
2022-09-06T14:44:42.107Z,2.58
2022-09-06T14:47:12.518Z,2.10
2022-09-06T14:49:40.865Z,2.08
2022-09-06T14:52:10.131Z,1.90
2022-09-06T14:54:38.942Z,2.63
2022-09-06T14:57:07.510Z,2.20
2022-09-06T14:59:46.536Z,2.30
2022-09-06T15:02:16.326Z,2.40
2022-09-06T15:04:44.658Z,2.22
2022-09-06T15:07:12.990Z,2.40
2022-09-06T15:09:41.408Z,2.28
2022-09-06T15:12:11.384Z,2.30
2022-09-06T15:14:41.078Z,2.50
2022-09-06T15:17:10.682Z,2.08
2022-09-06T15:19:43.495Z,2.35
2022-09-06T15:22:11.806Z,2.20
2022-09-06T15:24:43.039Z,2.47
2022-09-06T15:27:11.523Z,2.47
2022-09-06T15:29:42.592Z,2.60
2022-09-06T15:32:13.713Z,1.95
2022-09-06T15:34:43.398Z,2.10
2022-09-06T15:37:11.718Z,2.22
2022-09-06T15:39:40.053Z,1.90
2022-09-06T15:42:08.793Z,1.90
2022-09-06T15:44:39.458Z,1.67
2022-09-06T15:47:07.949Z,1.92
2022-09-06T15:49:36.371Z,1.80
2022-09-06T15:52:08.029Z,2.28
2022-09-06T15:55:05.374Z,1.98
2022-09-06T15:57:33.714Z,1.80
2022-09-06T16:00:02.023Z,1.65
2022-09-06T16:02:30.394Z,1.63
2022-09-06T16:04:58.783Z,1.70
2022-09-06T16:07:29.210Z,1.63
2022-09-06T16:09:58.205Z,1.98
2022-09-06T16:12:26.561Z,1.80
2022-09-06T16:14:54.884Z,1.70
2022-09-06T16:17:23.884Z,1.70
2022-09-06T16:19:52.245Z,1.52
2022-09-06T16:22:20.572Z,1.63
2022-09-06T16:24:50.261Z,1.70
2022-09-06T16:27:19.090Z,1.90
2022-09-06T16:29:47.420Z,2.22
2022-09-06T16:32:16.614Z,1.88
2022-09-06T16:34:45.848Z,1.80
2022-09-06T16:37:14.538Z,2.25
2022-09-06T16:39:43.148Z,1.65
2022-09-06T16:42:13.387Z,1.50
2022-09-06T16:44:41.715Z,2.58
2022-09-06T16:47:13.545Z,1.85
2022-09-06T16:49:44.368Z,2.00
2022-09-06T16:52:13.326Z,1.58
2022-09-06T16:54:41.739Z,5.38
2022-09-06T16:57:14.135Z,2.17
2022-09-06T16:59:48.066Z,1.90
2022-09-06T17:02:16.530Z,1.65
2022-09-06T17:04:44.975Z,3.75
2022-09-06T17:07:17.254Z,2.08
2022-09-06T17:09:46.012Z,2.00
2022-09-06T17:12:14.314Z,1.45
2022-09-06T17:14:43.986Z,1.80
2022-09-06T17:17:15.717Z,1.92
2022-09-06T17:19:44.342Z,2.40
2022-09-06T17:22:13.738Z,2.40
2022-09-06T17:24:44.823Z,1.90
2022-09-06T17:27:13.378Z,1.80
2022-09-06T17:29:41.821Z,1.95
2022-09-06T17:32:11.691Z,2.03
2022-09-06T17:34:40.398Z,1.85
2022-09-06T17:37:09.092Z,2.30
2022-09-06T17:39:37.722Z,2.60
2022-09-06T17:42:08.632Z,2.25
2022-09-06T17:44:37.037Z,2.00
2022-09-06T17:47:12.908Z,2.45
2022-09-06T17:49:43.611Z,1.98
2022-09-06T17:52:12.009Z,2.22
2022-09-06T17:54:40.296Z,2.78
2022-09-06T17:57:08.703Z,2.65
2022-09-06T17:59:38.398Z,2.60
2022-09-06T18:02:07.123Z,2.58
2022-09-06T18:04:35.561Z,3.00
2022-09-06T18:07:05.474Z,3.60
2022-09-06T18:09:33.810Z,2.72
2022-09-06T18:12:02.245Z,2.78
2022-09-06T18:14:31.087Z,3.17
2022-09-06T18:16:59.478Z,2.65
2022-09-06T18:19:28.152Z,2.45
2022-09-06T18:21:57.214Z,2.45
2022-09-06T18:24:27.142Z,2.13
2022-09-06T18:26:55.627Z,2.20
2022-09-06T18:29:24.229Z,2.83
2022-09-06T18:31:54.054Z,2.47
2022-09-06T18:34:22.623Z,2.75
2022-09-06T18:36:50.970Z,2.08
2022-09-06T18:39:20.387Z,2.45
2022-09-06T18:42:03.811Z,2.78
2022-09-06T18:44:35.837Z,3.55
2022-09-06T18:47:06.048Z,2.88
2022-09-06T18:49:34.799Z,3.05
2022-09-06T18:52:03.564Z,3.45
2022-09-06T18:54:32.550Z,3.50
2022-09-06T18:57:04.413Z,3.58
2022-09-06T18:59:32.892Z,3.38
2022-09-06T19:02:01.255Z,3.75
2022-09-06T19:04:29.851Z,4.20
2022-09-06T19:06:58.254Z,3.60
2022-09-06T19:09:26.621Z,3.88
2022-09-06T19:11:54.934Z,3.60
2022-09-06T19:14:24.726Z,4.10
2022-09-06T19:16:54.076Z,4.05
2022-09-06T19:19:24.158Z,4.03
2022-09-06T19:21:52.524Z,3.80
2022-09-06T19:24:22.654Z,3.78
2022-09-06T19:26:51.442Z,3.50
2022-09-06T19:29:20.256Z,3.80
2022-09-06T19:31:50.363Z,3.63
2022-09-06T19:34:18.744Z,3.80
2022-09-06T19:36:47.090Z,3.65
2022-09-06T19:39:16.893Z,3.65
2022-09-06T19:41:47.304Z,3.92
2022-09-06T19:44:16.046Z,4.00
2022-09-06T19:46:46.806Z,3.78
2022-09-06T19:49:17.085Z,3.72
2022-09-06T19:51:46.469Z,3.85
2022-09-06T19:54:15.292Z,3.85
2022-09-06T19:56:44.251Z,4.00
2022-09-06T19:59:13.190Z,5.60
2022-09-06T20:01:42.121Z,4.32
2022-09-06T20:04:12.286Z,4.47
2022-09-06T20:06:41.973Z,4.43
2022-09-06T20:09:11.167Z,4.45
2022-09-06T20:11:40.115Z,4.60
2022-09-06T20:14:08.838Z,4.97
2022-09-06T20:16:41.411Z,4.80
2022-09-06T20:19:10.780Z,4.70
2022-09-06T20:21:39.234Z,4.97
2022-09-06T20:24:09.628Z,4.97
2022-09-06T20:26:38.183Z,4.53
2022-09-06T20:29:07.191Z,5.03
2022-09-06T20:31:36.953Z,4.93
2022-09-06T20:34:06.217Z,5.45
2022-09-06T20:36:34.664Z,5.50
2022-09-06T20:39:03.322Z,5.25
2022-09-06T20:41:33.874Z,5.20
2022-09-06T20:44:02.609Z,5.43
2022-09-06T20:46:32.147Z,5.28
2022-09-06T20:49:04.386Z,5.65
2022-09-06T20:51:33.318Z,5.18
2022-09-06T20:54:02.428Z,5.55
2022-09-06T20:56:33.181Z,5.00
2022-09-06T20:59:03.882Z,5.65
2022-09-06T21:01:34.634Z,5.60
2022-09-06T21:04:04.064Z,5.50
2022-09-06T21:06:33.776Z,5.10
2022-09-06T21:09:02.198Z,5.13
2022-09-06T21:11:30.692Z,4.75
2022-09-06T21:13:59.292Z,5.63
2022-09-06T21:16:30.271Z,4.88
2022-09-06T21:18:59.512Z,5.25
2022-09-06T21:21:28.207Z,5.57
2022-09-06T21:23:56.635Z,5.57
2022-09-06T21:26:25.034Z,5.43
2022-09-06T21:28:53.439Z,4.70
2022-09-06T21:31:23.058Z,5.25
2022-09-06T21:33:53.705Z,5.40
2022-09-06T21:36:23.005Z,5.35
2022-09-06T21:38:52.159Z,5.05
2022-09-06T21:41:20.631Z,5.10
2022-09-06T21:43:49.067Z,4.78
2022-09-06T21:46:18.430Z,5.00
2022-09-06T21:48:47.525Z,4.85
2022-09-06T21:51:18.502Z,5.03
2022-09-06T21:53:47.971Z,4.97
2022-09-06T21:56:18.721Z,5.40
2022-09-06T21:58:47.242Z,4.78
2022-09-06T22:01:16.086Z,5.45
2022-09-06T22:03:45.587Z,5.47
2022-09-06T22:06:15.025Z,5.05
2022-09-06T22:08:45.110Z,5.40
2022-09-06T22:11:14.253Z,5.65
2022-09-06T22:13:43.234Z,5.30
2022-09-06T22:16:12.203Z,5.57
2022-09-06T22:18:40.764Z,5.13
2022-09-06T22:21:10.479Z,5.82
2022-09-06T22:23:39.394Z,5.60
2022-09-06T22:26:10.087Z,5.20
2022-09-06T22:28:39.219Z,5.90
2022-09-06T22:31:08.133Z,5.07
2022-09-06T22:33:37.031Z,5.85
2022-09-06T22:36:05.888Z,5.80
2022-09-06T22:38:34.971Z,5.75
2022-09-06T22:41:03.398Z,5.82
2022-09-06T22:43:33.375Z,5.80
2022-09-06T22:46:06.472Z,5.82
2022-09-06T22:48:35.012Z,5.93
2022-09-06T22:51:04.012Z,5.28
2022-09-06T22:53:32.856Z,5.43
2022-09-06T22:56:01.412Z,5.15
2022-09-06T22:58:30.107Z,4.93
2022-09-06T23:01:06.818Z,5.03
2022-09-06T23:03:35.469Z,5.18
2022-09-06T23:06:04.253Z,5.35
2022-09-06T23:08:32.934Z,5.05
2022-09-06T23:11:05.080Z,5.80
2022-09-06T23:13:33.472Z,4.97
2022-09-06T23:16:06.423Z,5.40
2022-09-06T23:18:34.950Z,5.30
2022-09-06T23:21:10.222Z,5.43
2022-09-06T23:23:39.473Z,5.28
2022-09-06T23:26:08.873Z,5.18
2022-09-06T23:28:37.451Z,5.22
2022-09-06T23:31:07.841Z,5.80
2022-09-06T23:33:37.374Z,5.22
2022-09-06T23:36:06.594Z,5.38
2022-09-06T23:38:35.430Z,5.28
2022-09-06T23:41:04.421Z,5.47
2022-09-06T23:43:33.211Z,5.18
2022-09-06T23:46:01.768Z,5.68
2022-09-06T23:48:37.527Z,5.35
2022-09-06T23:51:06.362Z,6.18
2022-09-06T23:53:35.007Z,6.13
2022-09-06T23:56:03.799Z,5.30
2022-09-06T23:58:32.546Z,5.85
